sensor_id;sensor_type;location;lat;lon;timestamp;temperature;humidity
16301;DHT22;8258;51.020;4.248;2022-10-17T00:00:42;14.20;99.90
16301;DHT22;8258;51.020;4.248;2022-10-17T00:03:09;14.20;99.90
16301;DHT22;8258;51.020;4.248;2022-10-17T00:05:38;14.10;99.90
16301;DHT22;8258;51.020;4.248;2022-10-17T00:08:05;14.20;99.90
16301;DHT22;8258;51.020;4.248;2022-10-17T00:10:33;14.20;99.90
16301;DHT22;8258;51.020;4.248;2022-10-17T00:13:01;14.10;99.90
16301;DHT22;8258;51.020;4.248;2022-10-17T00:15:28;14.10;99.90
16301;DHT22;8258;51.020;4.248;2022-10-17T00:17:55;14.10;99.90
16301;DHT22;8258;51.020;4.248;2022-10-17T00:20:22;14.10;99.90
16301;DHT22;8258;51.020;4.248;2022-10-17T00:22:49;14.10;99.90
16301;DHT22;8258;51.020;4.248;2022-10-17T00:25:16;14.10;99.90
16301;DHT22;8258;51.020;4.248;2022-10-17T00:27:44;14.10;99.90
16301;DHT22;8258;51.020;4.248;2022-10-17T00:30:18;14.10;99.90
16301;DHT22;8258;51.020;4.248;2022-10-17T00:32:44;14.00;99.90
16301;DHT22;8258;51.020;4.248;2022-10-17T00:35:11;14.10;99.90
16301;DHT22;8258;51.020;4.248;2022-10-17T00:37:38;14.10;99.90
16301;DHT22;8258;51.020;4.248;2022-10-17T00:40:06;14.10;99.90
16301;DHT22;8258;51.020;4.248;2022-10-17T00:42:34;14.10;99.90
16301;DHT22;8258;51.020;4.248;2022-10-17T00:45:22;14.10;99.90
16301;DHT22;8258;51.020;4.248;2022-10-17T00:47:52;14.10;99.90
16301;DHT22;8258;51.020;4.248;2022-10-17T00:50:20;14.10;99.90
16301;DHT22;8258;51.020;4.248;2022-10-17T00:52:48;14.10;99.90
16301;DHT22;8258;51.020;4.248;2022-10-17T00:55:19;14.20;99.90
16301;DHT22;8258;51.020;4.248;2022-10-17T00:57:47;14.20;99.90
16301;DHT22;8258;51.020;4.248;2022-10-17T01:00:15;14.10;99.90
16301;DHT22;8258;51.020;4.248;2022-10-17T01:02:44;14.20;99.90
16301;DHT22;8258;51.020;4.248;2022-10-17T01:05:11;14.30;99.90
16301;DHT22;8258;51.020;4.248;2022-10-17T01:07:39;14.20;99.90
16301;DHT22;8258;51.020;4.248;2022-10-17T01:10:08;14.20;99.90
16301;DHT22;8258;51.020;4.248;2022-10-17T01:12:54;14.30;99.90
16301;DHT22;8258;51.020;4.248;2022-10-17T01:15:31;14.40;99.90
16301;DHT22;8258;51.020;4.248;2022-10-17T01:18:11;14.40;99.90
16301;DHT22;8258;51.020;4.248;2022-10-17T01:33:24;14.70;99.90
16301;DHT22;8258;51.020;4.248;2022-10-17T01:35:55;14.80;99.90
16301;DHT22;8258;51.020;4.248;2022-10-17T01:38:33;15.00;99.90
16301;DHT22;8258;51.020;4.248;2022-10-17T01:41:04;15.10;99.90
16301;DHT22;8258;51.020;4.248;2022-10-17T01:43:36;15.10;99.90
16301;DHT22;8258;51.020;4.248;2022-10-17T01:46:09;15.20;99.90
16301;DHT22;8258;51.020;4.248;2022-10-17T01:48:42;15.20;99.90
16301;DHT22;8258;51.020;4.248;2022-10-17T01:51:15;15.20;99.90
16301;DHT22;8258;51.020;4.248;2022-10-17T01:53:48;15.20;99.90
16301;DHT22;8258;51.020;4.248;2022-10-17T01:56:17;15.20;99.90
16301;DHT22;8258;51.020;4.248;2022-10-17T01:58:48;15.30;99.90
16301;DHT22;8258;51.020;4.248;2022-10-17T02:01:16;15.30;99.90
16301;DHT22;8258;51.020;4.248;2022-10-17T02:03:48;15.30;99.90
16301;DHT22;8258;51.020;4.248;2022-10-17T02:06:16;15.30;99.90
16301;DHT22;8258;51.020;4.248;2022-10-17T02:08:44;15.40;99.90
16301;DHT22;8258;51.020;4.248;2022-10-17T02:11:14;15.50;99.90
16301;DHT22;8258;51.020;4.248;2022-10-17T02:16:46;15.60;99.90
16301;DHT22;8258;51.020;4.248;2022-10-17T02:19:36;15.80;99.90
16301;DHT22;8258;51.020;4.248;2022-10-17T02:22:13;15.90;99.90
16301;DHT22;8258;51.020;4.248;2022-10-17T02:24:46;15.90;99.90
16301;DHT22;8258;51.020;4.248;2022-10-17T02:27:16;16.00;99.90
16301;DHT22;8258;51.020;4.248;2022-10-17T02:29:49;16.10;99.90
16301;DHT22;8258;51.020;4.248;2022-10-17T02:32:25;16.10;99.90
16301;DHT22;8258;51.020;4.248;2022-10-17T02:34:59;16.20;99.90
16301;DHT22;8258;51.020;4.248;2022-10-17T02:37:29;16.30;99.90
16301;DHT22;8258;51.020;4.248;2022-10-17T02:39:58;16.40;99.90
16301;DHT22;8258;51.020;4.248;2022-10-17T02:42:26;16.40;99.90
16301;DHT22;8258;51.020;4.248;2022-10-17T02:44:57;16.50;99.90
16301;DHT22;8258;51.020;4.248;2022-10-17T02:47:27;16.50;99.90
16301;DHT22;8258;51.020;4.248;2022-10-17T02:49:57;16.50;99.90
16301;DHT22;8258;51.020;4.248;2022-10-17T02:52:28;16.60;99.90
16301;DHT22;8258;51.020;4.248;2022-10-17T02:54:59;16.70;99.90
16301;DHT22;8258;51.020;4.248;2022-10-17T02:57:31;16.70;99.90
16301;DHT22;8258;51.020;4.248;2022-10-17T03:00:01;16.70;99.90
16301;DHT22;8258;51.020;4.248;2022-10-17T03:02:28;16.80;99.90
16301;DHT22;8258;51.020;4.248;2022-10-17T03:05:06;16.80;99.90
16301;DHT22;8258;51.020;4.248;2022-10-17T03:07:33;16.90;99.90
16301;DHT22;8258;51.020;4.248;2022-10-17T03:10:00;17.00;99.90
16301;DHT22;8258;51.020;4.248;2022-10-17T03:12:27;17.00;99.90
16301;DHT22;8258;51.020;4.248;2022-10-17T03:14:53;17.10;99.90
16301;DHT22;8258;51.020;4.248;2022-10-17T03:17:20;17.30;99.90
16301;DHT22;8258;51.020;4.248;2022-10-17T03:19:47;17.30;99.90
16301;DHT22;8258;51.020;4.248;2022-10-17T03:22:15;17.40;99.90
16301;DHT22;8258;51.020;4.248;2022-10-17T03:24:42;17.50;99.90
16301;DHT22;8258;51.020;4.248;2022-10-17T03:27:09;17.50;99.90
16301;DHT22;8258;51.020;4.248;2022-10-17T03:29:36;17.50;99.90
16301;DHT22;8258;51.020;4.248;2022-10-17T03:32:04;17.60;99.90
16301;DHT22;8258;51.020;4.248;2022-10-17T03:34:31;17.50;99.90
16301;DHT22;8258;51.020;4.248;2022-10-17T03:36:58;17.60;99.90
16301;DHT22;8258;51.020;4.248;2022-10-17T03:39:26;17.60;99.90
16301;DHT22;8258;51.020;4.248;2022-10-17T03:41:53;17.60;99.90
16301;DHT22;8258;51.020;4.248;2022-10-17T03:44:20;17.60;99.90
16301;DHT22;8258;51.020;4.248;2022-10-17T03:46:47;17.60;99.90
16301;DHT22;8258;51.020;4.248;2022-10-17T03:49:13;17.60;99.90
16301;DHT22;8258;51.020;4.248;2022-10-17T03:51:40;17.60;99.90
16301;DHT22;8258;51.020;4.248;2022-10-17T03:54:07;17.60;99.90
16301;DHT22;8258;51.020;4.248;2022-10-17T03:56:35;17.60;99.90
16301;DHT22;8258;51.020;4.248;2022-10-17T03:59:02;17.60;99.90
16301;DHT22;8258;51.020;4.248;2022-10-17T04:01:29;17.60;99.90
16301;DHT22;8258;51.020;4.248;2022-10-17T04:03:56;17.60;99.90
16301;DHT22;8258;51.020;4.248;2022-10-17T04:06:23;17.60;99.90
16301;DHT22;8258;51.020;4.248;2022-10-17T04:08:50;17.60;99.90
16301;DHT22;8258;51.020;4.248;2022-10-17T04:11:18;17.60;99.90
16301;DHT22;8258;51.020;4.248;2022-10-17T04:13:51;17.60;99.90
16301;DHT22;8258;51.020;4.248;2022-10-17T04:16:18;17.60;99.90
16301;DHT22;8258;51.020;4.248;2022-10-17T04:18:45;17.50;99.90
16301;DHT22;8258;51.020;4.248;2022-10-17T04:21:12;17.50;99.90
16301;DHT22;8258;51.020;4.248;2022-10-17T04:23:39;17.50;99.90
16301;DHT22;8258;51.020;4.248;2022-10-17T04:26:06;17.50;99.90
16301;DHT22;8258;51.020;4.248;2022-10-17T04:28:33;17.50;99.90
16301;DHT22;8258;51.020;4.248;2022-10-17T04:31:02;17.50;99.90
16301;DHT22;8258;51.020;4.248;2022-10-17T04:33:31;17.50;99.90
16301;DHT22;8258;51.020;4.248;2022-10-17T04:35:59;17.40;99.90
16301;DHT22;8258;51.020;4.248;2022-10-17T04:38:27;17.40;99.90
16301;DHT22;8258;51.020;4.248;2022-10-17T04:40:56;17.40;99.90
16301;DHT22;8258;51.020;4.248;2022-10-17T04:43:24;17.30;99.90
16301;DHT22;8258;51.020;4.248;2022-10-17T04:45:51;17.30;99.90
16301;DHT22;8258;51.020;4.248;2022-10-17T04:48:19;17.30;99.90
16301;DHT22;8258;51.020;4.248;2022-10-17T04:50:52;17.30;99.90
16301;DHT22;8258;51.020;4.248;2022-10-17T04:53:19;17.30;99.90
16301;DHT22;8258;51.020;4.248;2022-10-17T04:55:46;17.30;99.90
16301;DHT22;8258;51.020;4.248;2022-10-17T04:58:13;17.40;99.90
16301;DHT22;8258;51.020;4.248;2022-10-17T05:00:40;17.40;99.90
16301;DHT22;8258;51.020;4.248;2022-10-17T05:03:07;17.50;99.90
16301;DHT22;8258;51.020;4.248;2022-10-17T05:05:37;17.50;99.90
16301;DHT22;8258;51.020;4.248;2022-10-17T05:08:05;17.60;99.90
16301;DHT22;8258;51.020;4.248;2022-10-17T05:10:35;17.50;99.90
16301;DHT22;8258;51.020;4.248;2022-10-17T05:13:03;17.50;99.90
16301;DHT22;8258;51.020;4.248;2022-10-17T05:15:30;17.50;99.90
16301;DHT22;8258;51.020;4.248;2022-10-17T05:17:57;17.50;99.90
16301;DHT22;8258;51.020;4.248;2022-10-17T05:20:24;17.50;99.90
16301;DHT22;8258;51.020;4.248;2022-10-17T05:22:53;17.50;99.90
16301;DHT22;8258;51.020;4.248;2022-10-17T05:25:21;17.50;99.90
16301;DHT22;8258;51.020;4.248;2022-10-17T05:27:48;17.40;99.90
16301;DHT22;8258;51.020;4.248;2022-10-17T05:30:16;17.40;99.90
16301;DHT22;8258;51.020;4.248;2022-10-17T05:32:43;17.40;99.90
16301;DHT22;8258;51.020;4.248;2022-10-17T05:35:10;17.40;99.90
16301;DHT22;8258;51.020;4.248;2022-10-17T05:37:37;17.40;99.90
16301;DHT22;8258;51.020;4.248;2022-10-17T05:40:06;17.50;99.90
16301;DHT22;8258;51.020;4.248;2022-10-17T05:42:33;17.50;99.90
16301;DHT22;8258;51.020;4.248;2022-10-17T05:45:00;17.60;99.90
16301;DHT22;8258;51.020;4.248;2022-10-17T05:47:27;17.60;99.90
16301;DHT22;8258;51.020;4.248;2022-10-17T05:49:54;17.60;99.90
16301;DHT22;8258;51.020;4.248;2022-10-17T05:52:20;17.60;99.90
16301;DHT22;8258;51.020;4.248;2022-10-17T05:55:00;17.60;99.90
16301;DHT22;8258;51.020;4.248;2022-10-17T05:57:29;17.60;99.90
16301;DHT22;8258;51.020;4.248;2022-10-17T05:59:56;17.60;99.90
16301;DHT22;8258;51.020;4.248;2022-10-17T06:02:22;17.60;99.90
16301;DHT22;8258;51.020;4.248;2022-10-17T06:04:49;17.70;99.90
16301;DHT22;8258;51.020;4.248;2022-10-17T06:07:16;17.60;99.90
16301;DHT22;8258;51.020;4.248;2022-10-17T06:09:43;17.60;99.90
16301;DHT22;8258;51.020;4.248;2022-10-17T06:12:12;17.60;99.90
16301;DHT22;8258;51.020;4.248;2022-10-17T06:14:41;17.50;99.90
16301;DHT22;8258;51.020;4.248;2022-10-17T06:17:08;17.50;99.90
16301;DHT22;8258;51.020;4.248;2022-10-17T06:19:34;17.50;99.90
16301;DHT22;8258;51.020;4.248;2022-10-17T06:22:01;17.60;99.90
16301;DHT22;8258;51.020;4.248;2022-10-17T06:24:28;17.60;99.90
16301;DHT22;8258;51.020;4.248;2022-10-17T06:26:55;17.60;99.90
16301;DHT22;8258;51.020;4.248;2022-10-17T06:29:22;17.50;99.90
16301;DHT22;8258;51.020;4.248;2022-10-17T06:31:51;17.50;99.90
16301;DHT22;8258;51.020;4.248;2022-10-17T06:34:18;17.40;99.90
16301;DHT22;8258;51.020;4.248;2022-10-17T06:36:45;17.30;99.90
16301;DHT22;8258;51.020;4.248;2022-10-17T06:39:12;17.30;99.90
16301;DHT22;8258;51.020;4.248;2022-10-17T06:41:39;17.20;99.90
16301;DHT22;8258;51.020;4.248;2022-10-17T06:44:08;17.20;99.90
16301;DHT22;8258;51.020;4.248;2022-10-17T06:46:35;17.10;99.90
16301;DHT22;8258;51.020;4.248;2022-10-17T06:49:04;17.10;99.90
16301;DHT22;8258;51.020;4.248;2022-10-17T06:51:34;17.00;99.90
16301;DHT22;8258;51.020;4.248;2022-10-17T06:54:01;17.00;99.90
16301;DHT22;8258;51.020;4.248;2022-10-17T06:56:28;16.90;99.90
16301;DHT22;8258;51.020;4.248;2022-10-17T06:58:55;16.80;99.90
16301;DHT22;8258;51.020;4.248;2022-10-17T07:01:21;16.80;99.90
16301;DHT22;8258;51.020;4.248;2022-10-17T07:03:48;16.70;99.90
16301;DHT22;8258;51.020;4.248;2022-10-17T07:06:18;16.70;99.90
16301;DHT22;8258;51.020;4.248;2022-10-17T07:08:45;16.70;99.90
16301;DHT22;8258;51.020;4.248;2022-10-17T07:11:14;16.70;99.90
16301;DHT22;8258;51.020;4.248;2022-10-17T07:13:41;16.60;99.90
16301;DHT22;8258;51.020;4.248;2022-10-17T07:16:08;16.60;99.90
16301;DHT22;8258;51.020;4.248;2022-10-17T07:18:36;16.60;99.90
16301;DHT22;8258;51.020;4.248;2022-10-17T07:21:03;16.50;99.90
16301;DHT22;8258;51.020;4.248;2022-10-17T07:23:31;16.50;99.90
16301;DHT22;8258;51.020;4.248;2022-10-17T07:26:02;16.50;99.90
16301;DHT22;8258;51.020;4.248;2022-10-17T07:28:31;16.50;99.90
16301;DHT22;8258;51.020;4.248;2022-10-17T07:31:02;16.50;99.90
16301;DHT22;8258;51.020;4.248;2022-10-17T07:33:30;16.40;99.90
16301;DHT22;8258;51.020;4.248;2022-10-17T07:35:57;16.40;99.90
16301;DHT22;8258;51.020;4.248;2022-10-17T07:38:25;16.30;99.90
16301;DHT22;8258;51.020;4.248;2022-10-17T07:40:58;16.20;99.90
16301;DHT22;8258;51.020;4.248;2022-10-17T07:43:26;16.20;99.90
16301;DHT22;8258;51.020;4.248;2022-10-17T07:45:54;16.20;99.90
16301;DHT22;8258;51.020;4.248;2022-10-17T07:48:22;16.20;99.90
16301;DHT22;8258;51.020;4.248;2022-10-17T07:50:50;16.20;99.90
16301;DHT22;8258;51.020;4.248;2022-10-17T07:53:17;16.20;99.90
16301;DHT22;8258;51.020;4.248;2022-10-17T07:55:44;16.20;99.90
16301;DHT22;8258;51.020;4.248;2022-10-17T07:58:16;16.20;99.90
16301;DHT22;8258;51.020;4.248;2022-10-17T08:00:43;16.20;99.90
16301;DHT22;8258;51.020;4.248;2022-10-17T08:03:12;16.20;99.90
16301;DHT22;8258;51.020;4.248;2022-10-17T08:05:39;16.30;99.90
16301;DHT22;8258;51.020;4.248;2022-10-17T08:08:06;16.30;99.90
16301;DHT22;8258;51.020;4.248;2022-10-17T08:10:33;16.30;99.90
16301;DHT22;8258;51.020;4.248;2022-10-17T08:13:00;16.20;99.90
16301;DHT22;8258;51.020;4.248;2022-10-17T08:15:29;16.20;99.90
16301;DHT22;8258;51.020;4.248;2022-10-17T08:17:56;16.20;99.90
16301;DHT22;8258;51.020;4.248;2022-10-17T08:20:22;16.20;99.90
16301;DHT22;8258;51.020;4.248;2022-10-17T08:22:53;16.10;99.90
16301;DHT22;8258;51.020;4.248;2022-10-17T08:25:20;16.10;99.90
16301;DHT22;8258;51.020;4.248;2022-10-17T08:27:47;16.20;99.90
16301;DHT22;8258;51.020;4.248;2022-10-17T08:30:15;16.20;99.90
16301;DHT22;8258;51.020;4.248;2022-10-17T08:32:43;16.20;99.90
16301;DHT22;8258;51.020;4.248;2022-10-17T08:35:10;16.20;99.90
16301;DHT22;8258;51.020;4.248;2022-10-17T08:37:39;16.20;99.90
16301;DHT22;8258;51.020;4.248;2022-10-17T08:40:08;16.30;99.90
16301;DHT22;8258;51.020;4.248;2022-10-17T08:42:49;16.30;99.90
16301;DHT22;8258;51.020;4.248;2022-10-17T08:45:22;16.30;99.90
16301;DHT22;8258;51.020;4.248;2022-10-17T08:47:57;16.30;99.90
16301;DHT22;8258;51.020;4.248;2022-10-17T08:50:30;16.30;99.90
16301;DHT22;8258;51.020;4.248;2022-10-17T08:53:02;16.40;99.90
16301;DHT22;8258;51.020;4.248;2022-10-17T08:55:34;16.30;99.90
16301;DHT22;8258;51.020;4.248;2022-10-17T08:58:02;16.30;99.90
16301;DHT22;8258;51.020;4.248;2022-10-17T09:00:30;16.40;99.90
16301;DHT22;8258;51.020;4.248;2022-10-17T09:03:08;16.50;99.90
16301;DHT22;8258;51.020;4.248;2022-10-17T09:05:43;16.50;99.90
16301;DHT22;8258;51.020;4.248;2022-10-17T09:08:34;16.50;99.90
16301;DHT22;8258;51.020;4.248;2022-10-17T09:11:23;16.50;99.90
16301;DHT22;8258;51.020;4.248;2022-10-17T09:14:03;16.60;99.90
16301;DHT22;8258;51.020;4.248;2022-10-17T09:16:45;16.60;99.90
16301;DHT22;8258;51.020;4.248;2022-10-17T09:19:19;16.70;99.90
16301;DHT22;8258;51.020;4.248;2022-10-17T09:21:52;16.70;99.90
16301;DHT22;8258;51.020;4.248;2022-10-17T09:24:23;16.70;99.90
16301;DHT22;8258;51.020;4.248;2022-10-17T09:26:53;16.80;99.90
16301;DHT22;8258;51.020;4.248;2022-10-17T09:29:22;16.70;99.90
16301;DHT22;8258;51.020;4.248;2022-10-17T09:31:55;16.80;99.90
16301;DHT22;8258;51.020;4.248;2022-10-17T09:34:26;16.80;99.90
16301;DHT22;8258;51.020;4.248;2022-10-17T09:36:57;16.80;99.90
16301;DHT22;8258;51.020;4.248;2022-10-17T09:39:24;16.80;99.90
16301;DHT22;8258;51.020;4.248;2022-10-17T09:41:57;16.80;99.90
16301;DHT22;8258;51.020;4.248;2022-10-17T09:44:29;16.80;99.90
16301;DHT22;8258;51.020;4.248;2022-10-17T09:47:24;16.90;99.90
16301;DHT22;8258;51.020;4.248;2022-10-17T09:49:53;17.00;99.90
16301;DHT22;8258;51.020;4.248;2022-10-17T09:52:25;17.20;99.90
16301;DHT22;8258;51.020;4.248;2022-10-17T09:54:56;17.20;99.90
16301;DHT22;8258;51.020;4.248;2022-10-17T09:57:24;17.30;99.90
16301;DHT22;8258;51.020;4.248;2022-10-17T09:59:57;17.40;99.90
16301;DHT22;8258;51.020;4.248;2022-10-17T10:02:25;17.40;99.90
16301;DHT22;8258;51.020;4.248;2022-10-17T10:04:59;17.50;99.90
16301;DHT22;8258;51.020;4.248;2022-10-17T10:07:28;17.60;99.90
16301;DHT22;8258;51.020;4.248;2022-10-17T10:09:56;17.50;99.90
16301;DHT22;8258;51.020;4.248;2022-10-17T10:12:26;17.60;99.90
16301;DHT22;8258;51.020;4.248;2022-10-17T10:14:53;17.70;99.90
16301;DHT22;8258;51.020;4.248;2022-10-17T10:17:41;17.80;99.90
16301;DHT22;8258;51.020;4.248;2022-10-17T10:20:29;17.80;99.90
16301;DHT22;8258;51.020;4.248;2022-10-17T10:23:10;17.80;99.90
16301;DHT22;8258;51.020;4.248;2022-10-17T10:25:37;17.80;99.90
16301;DHT22;8258;51.020;4.248;2022-10-17T10:28:15;17.70;99.90
16301;DHT22;8258;51.020;4.248;2022-10-17T10:30:46;17.90;99.90
16301;DHT22;8258;51.020;4.248;2022-10-17T10:33:13;17.80;99.90
16301;DHT22;8258;51.020;4.248;2022-10-17T10:35:42;17.80;99.90
16301;DHT22;8258;51.020;4.248;2022-10-17T10:38:17;17.80;99.90
16301;DHT22;8258;51.020;4.248;2022-10-17T10:40:46;17.70;99.90
16301;DHT22;8258;51.020;4.248;2022-10-17T10:43:23;17.80;99.90
16301;DHT22;8258;51.020;4.248;2022-10-17T10:45:52;17.80;99.90
16301;DHT22;8258;51.020;4.248;2022-10-17T10:48:21;17.80;99.90
16301;DHT22;8258;51.020;4.248;2022-10-17T10:50:52;17.80;99.90
16301;DHT22;8258;51.020;4.248;2022-10-17T10:53:32;17.80;99.90
16301;DHT22;8258;51.020;4.248;2022-10-17T10:56:04;17.70;99.90
16301;DHT22;8258;51.020;4.248;2022-10-17T10:58:40;17.70;99.90
16301;DHT22;8258;51.020;4.248;2022-10-17T11:01:14;17.60;99.90
16301;DHT22;8258;51.020;4.248;2022-10-17T11:06:43;17.60;99.90
16301;DHT22;8258;51.020;4.248;2022-10-17T11:09:31;17.60;99.90
16301;DHT22;8258;51.020;4.248;2022-10-17T11:12:06;17.60;99.90
16301;DHT22;8258;51.020;4.248;2022-10-17T11:14:42;17.70;99.90
16301;DHT22;8258;51.020;4.248;2022-10-17T11:17:18;17.60;99.90
16301;DHT22;8258;51.020;4.248;2022-10-17T11:19:57;17.60;99.90
16301;DHT22;8258;51.020;4.248;2022-10-17T11:22:30;17.60;99.90
16301;DHT22;8258;51.020;4.248;2022-10-17T11:24:58;17.50;99.90
16301;DHT22;8258;51.020;4.248;2022-10-17T11:27:28;17.50;99.90
16301;DHT22;8258;51.020;4.248;2022-10-17T11:29:56;17.60;99.90
16301;DHT22;8258;51.020;4.248;2022-10-17T11:32:26;17.80;99.90
16301;DHT22;8258;51.020;4.248;2022-10-17T11:34:59;18.00;99.90
16301;DHT22;8258;51.020;4.248;2022-10-17T11:37:39;18.10;99.90
16301;DHT22;8258;51.020;4.248;2022-10-17T11:40:14;18.30;99.90
16301;DHT22;8258;51.020;4.248;2022-10-17T11:42:52;18.30;99.90
16301;DHT22;8258;51.020;4.248;2022-10-17T11:45:22;18.40;99.90
16301;DHT22;8258;51.020;4.248;2022-10-17T11:47:52;18.50;99.90
16301;DHT22;8258;51.020;4.248;2022-10-17T11:50:24;18.60;99.90
16301;DHT22;8258;51.020;4.248;2022-10-17T11:52:57;18.50;99.90
16301;DHT22;8258;51.020;4.248;2022-10-17T11:55:27;18.50;99.90
16301;DHT22;8258;51.020;4.248;2022-10-17T11:58:22;18.60;99.90
16301;DHT22;8258;51.020;4.248;2022-10-17T12:00:59;18.70;99.90
16301;DHT22;8258;51.020;4.248;2022-10-17T12:03:50;18.70;99.90
16301;DHT22;8258;51.020;4.248;2022-10-17T12:06:30;18.60;99.90
16301;DHT22;8258;51.020;4.248;2022-10-17T12:09:05;18.60;99.90
16301;DHT22;8258;51.020;4.248;2022-10-17T12:11:41;18.70;99.90
16301;DHT22;8258;51.020;4.248;2022-10-17T12:14:36;18.70;99.90
16301;DHT22;8258;51.020;4.248;2022-10-17T12:17:04;18.70;99.90
16301;DHT22;8258;51.020;4.248;2022-10-17T12:19:33;18.60;99.90
16301;DHT22;8258;51.020;4.248;2022-10-17T12:22:16;18.40;99.90
16301;DHT22;8258;51.020;4.248;2022-10-17T12:24:53;18.40;99.90
16301;DHT22;8258;51.020;4.248;2022-10-17T12:27:32;18.40;99.90
16301;DHT22;8258;51.020;4.248;2022-10-17T12:30:02;18.30;99.90
16301;DHT22;8258;51.020;4.248;2022-10-17T12:32:30;18.30;99.90
16301;DHT22;8258;51.020;4.248;2022-10-17T12:34:57;18.30;99.90
16301;DHT22;8258;51.020;4.248;2022-10-17T12:37:59;18.30;99.90
16301;DHT22;8258;51.020;4.248;2022-10-17T12:46:45;18.50;99.90
16301;DHT22;8258;51.020;4.248;2022-10-17T12:49:37;18.50;99.90
16301;DHT22;8258;51.020;4.248;2022-10-17T12:52:23;18.50;99.90
16301;DHT22;8258;51.020;4.248;2022-10-17T12:54:56;18.50;99.90
16301;DHT22;8258;51.020;4.248;2022-10-17T12:57:32;18.60;99.90
16301;DHT22;8258;51.020;4.248;2022-10-17T13:00:11;18.50;99.90
16301;DHT22;8258;51.020;4.248;2022-10-17T13:02:39;18.60;99.90
16301;DHT22;8258;51.020;4.248;2022-10-17T13:05:12;18.60;99.90
16301;DHT22;8258;51.020;4.248;2022-10-17T13:07:41;18.70;99.90
16301;DHT22;8258;51.020;4.248;2022-10-17T13:10:18;18.70;99.90
16301;DHT22;8258;51.020;4.248;2022-10-17T13:12:47;18.70;99.90
16301;DHT22;8258;51.020;4.248;2022-10-17T13:15:18;18.70;99.90
16301;DHT22;8258;51.020;4.248;2022-10-17T13:17:54;18.80;99.90
16301;DHT22;8258;51.020;4.248;2022-10-17T13:20:23;18.90;99.90
16301;DHT22;8258;51.020;4.248;2022-10-17T13:22:53;19.10;99.90
16301;DHT22;8258;51.020;4.248;2022-10-17T13:25:27;19.20;99.90
16301;DHT22;8258;51.020;4.248;2022-10-17T13:28:09;19.40;99.90
16301;DHT22;8258;51.020;4.248;2022-10-17T13:30:44;19.60;99.90
16301;DHT22;8258;51.020;4.248;2022-10-17T13:33:28;19.70;99.90
16301;DHT22;8258;51.020;4.248;2022-10-17T13:35:56;19.70;99.90
16301;DHT22;8258;51.020;4.248;2022-10-17T13:38:26;19.60;99.90
16301;DHT22;8258;51.020;4.248;2022-10-17T13:40:54;19.60;99.90
16301;DHT22;8258;51.020;4.248;2022-10-17T13:43:22;19.40;99.90
16301;DHT22;8258;51.020;4.248;2022-10-17T13:45:52;19.30;99.90
16301;DHT22;8258;51.020;4.248;2022-10-17T13:48:23;19.20;99.90
16301;DHT22;8258;51.020;4.248;2022-10-17T13:50:52;19.20;99.90
16301;DHT22;8258;51.020;4.248;2022-10-17T13:53:24;19.10;99.90
16301;DHT22;8258;51.020;4.248;2022-10-17T13:55:54;19.10;99.90
16301;DHT22;8258;51.020;4.248;2022-10-17T13:58:40;19.20;99.90
16301;DHT22;8258;51.020;4.248;2022-10-17T14:01:09;19.20;99.90
16301;DHT22;8258;51.020;4.248;2022-10-17T14:03:37;19.30;99.90
16301;DHT22;8258;51.020;4.248;2022-10-17T14:06:15;19.30;99.90
16301;DHT22;8258;51.020;4.248;2022-10-17T14:08:52;19.40;99.90
16301;DHT22;8258;51.020;4.248;2022-10-17T14:11:34;19.30;99.90
16301;DHT22;8258;51.020;4.248;2022-10-17T14:14:03;19.40;99.90
16301;DHT22;8258;51.020;4.248;2022-10-17T14:16:37;19.40;99.90
16301;DHT22;8258;51.020;4.248;2022-10-17T14:19:19;19.60;99.90
16301;DHT22;8258;51.020;4.248;2022-10-17T14:21:52;19.60;99.90
16301;DHT22;8258;51.020;4.248;2022-10-17T14:24:28;19.70;99.90
16301;DHT22;8258;51.020;4.248;2022-10-17T14:26:57;19.70;99.90
16301;DHT22;8258;51.020;4.248;2022-10-17T14:29:26;19.70;99.90
16301;DHT22;8258;51.020;4.248;2022-10-17T14:32:04;19.70;99.90
16301;DHT22;8258;51.020;4.248;2022-10-17T14:34:35;19.70;99.90
16301;DHT22;8258;51.020;4.248;2022-10-17T14:37:08;19.70;99.90
16301;DHT22;8258;51.020;4.248;2022-10-17T14:39:35;19.60;99.90
16301;DHT22;8258;51.020;4.248;2022-10-17T14:42:02;19.40;99.90
16301;DHT22;8258;51.020;4.248;2022-10-17T14:44:31;19.30;99.90
16301;DHT22;8258;51.020;4.248;2022-10-17T14:47:02;19.20;99.90
16301;DHT22;8258;51.020;4.248;2022-10-17T14:49:35;19.20;99.90
16301;DHT22;8258;51.020;4.248;2022-10-17T14:52:28;19.10;99.90
16301;DHT22;8258;51.020;4.248;2022-10-17T14:55:19;19.00;99.90
16301;DHT22;8258;51.020;4.248;2022-10-17T14:57:47;19.10;99.90
16301;DHT22;8258;51.020;4.248;2022-10-17T15:00:15;19.00;99.90
16301;DHT22;8258;51.020;4.248;2022-10-17T15:02:45;19.00;99.90
16301;DHT22;8258;51.020;4.248;2022-10-17T15:05:13;19.00;99.90
16301;DHT22;8258;51.020;4.248;2022-10-17T15:07:40;18.90;99.90
16301;DHT22;8258;51.020;4.248;2022-10-17T15:10:22;19.00;99.90
16301;DHT22;8258;51.020;4.248;2022-10-17T15:12:49;18.90;99.90
16301;DHT22;8258;51.020;4.248;2022-10-17T15:15:16;18.90;99.90
16301;DHT22;8258;51.020;4.248;2022-10-17T15:17:45;18.90;99.90
16301;DHT22;8258;51.020;4.248;2022-10-17T15:20:13;18.80;99.90
16301;DHT22;8258;51.020;4.248;2022-10-17T15:22:41;18.80;99.90
16301;DHT22;8258;51.020;4.248;2022-10-17T15:25:09;18.80;99.90
16301;DHT22;8258;51.020;4.248;2022-10-17T15:27:36;18.80;99.90
16301;DHT22;8258;51.020;4.248;2022-10-17T15:30:03;18.70;99.90
16301;DHT22;8258;51.020;4.248;2022-10-17T15:32:30;18.70;99.90
16301;DHT22;8258;51.020;4.248;2022-10-17T15:34:58;18.60;99.90
16301;DHT22;8258;51.020;4.248;2022-10-17T15:37:28;18.60;99.90
16301;DHT22;8258;51.020;4.248;2022-10-17T15:39:58;18.60;99.90
16301;DHT22;8258;51.020;4.248;2022-10-17T15:42:27;18.60;99.90
16301;DHT22;8258;51.020;4.248;2022-10-17T15:44:54;18.60;99.90
16301;DHT22;8258;51.020;4.248;2022-10-17T15:47:24;18.50;99.90
16301;DHT22;8258;51.020;4.248;2022-10-17T15:49:52;18.50;99.90
16301;DHT22;8258;51.020;4.248;2022-10-17T15:52:20;18.50;99.90
16301;DHT22;8258;51.020;4.248;2022-10-17T15:54:47;18.50;99.90
16301;DHT22;8258;51.020;4.248;2022-10-17T15:57:17;18.40;99.90
16301;DHT22;8258;51.020;4.248;2022-10-17T15:59:45;18.30;99.90
16301;DHT22;8258;51.020;4.248;2022-10-17T16:02:13;18.20;99.90
16301;DHT22;8258;51.020;4.248;2022-10-17T16:04:40;18.20;99.90
16301;DHT22;8258;51.020;4.248;2022-10-17T16:07:08;18.20;99.90
16301;DHT22;8258;51.020;4.248;2022-10-17T16:09:36;18.20;99.90
16301;DHT22;8258;51.020;4.248;2022-10-17T16:12:05;18.10;99.90
16301;DHT22;8258;51.020;4.248;2022-10-17T16:14:32;18.00;99.90
16301;DHT22;8258;51.020;4.248;2022-10-17T16:16:59;18.00;99.90
16301;DHT22;8258;51.020;4.248;2022-10-17T16:19:26;17.90;99.90
16301;DHT22;8258;51.020;4.248;2022-10-17T16:21:55;17.90;99.90
16301;DHT22;8258;51.020;4.248;2022-10-17T16:24:22;17.80;99.90
16301;DHT22;8258;51.020;4.248;2022-10-17T16:26:50;17.80;99.90
16301;DHT22;8258;51.020;4.248;2022-10-17T16:29:17;17.70;99.90
16301;DHT22;8258;51.020;4.248;2022-10-17T16:31:44;17.70;99.90